Time;durP1;ratioP1;P1;durP2;ratioP2;P2;SDS_P1;SDS_P2;PMS_P1;PMS_P2;Temp;Humidity;BMP_temperature;BMP_pressure;BME280_temperature;BME280_humidity;BME280_pressure;Samples;Min_cycle;Max_cycle;Signal;HPM_P1;HPM_P2
2023/07/19 00:01:10;;;;;;;10.48;3.90;;;;;;;29.15;42.91;99234.22;4373363;32;33877;-76
2023/07/19 00:03:38;;;;;;;7.57;3.67;;;;;;;29.11;42.86;99238.56;4387341;32;33607;-76
2023/07/19 00:06:06;;;;;;;5.00;3.08;;;;;;;29.07;43.01;99238.22;4379778;32;33360;-73
2023/07/19 00:08:33;;;;;;;6.47;3.03;;;;;;;28.97;43.47;99233.34;4388227;32;33582;-74
2023/07/19 00:11:01;;;;;;;11.77;3.83;;;;;;;28.97;43.57;99218.72;4388989;32;34995;-74
2023/07/19 00:13:29;;;;;;;8.43;3.35;;;;;;;29.05;43.15;99206.50;4389821;32;35044;-74
2023/07/19 00:15:56;;;;;;;7.28;3.75;;;;;;;29.06;43.17;99199.91;4388024;32;31971;-74
2023/07/19 00:18:24;;;;;;;7.35;4.57;;;;;;;28.97;43.29;99202.22;4388911;32;33505;-73
2023/07/19 00:20:52;;;;;;;8.93;2.75;;;;;;;28.86;43.51;99209.47;4386730;32;33987;-74
2023/07/19 00:23:19;;;;;;;7.57;2.97;;;;;;;28.83;43.70;99207.19;4387750;32;34883;-74
2023/07/19 00:25:47;;;;;;;9.95;3.67;;;;;;;28.77;43.86;99198.00;4404404;32;34650;-74
2023/07/19 00:28:14;;;;;;;4.97;2.97;;;;;;;28.72;43.91;99178.63;4398998;32;32402;-74
2023/07/19 00:30:42;;;;;;;7.50;3.37;;;;;;;28.67;44.11;99173.03;4388867;32;33561;-74
2023/07/19 00:33:10;;;;;;;7.05;3.35;;;;;;;28.67;44.33;99170.28;4416925;32;35373;-72
2023/07/19 00:35:41;;;;;;;7.45;3.40;;;;;;;28.66;44.19;99176.00;4402302;32;34509;-72
2023/07/19 00:38:08;;;;;;;9.63;2.85;;;;;;;28.57;44.07;99175.56;4407093;32;34583;-72
2023/07/19 00:40:36;;;;;;;9.50;3.17;;;;;;;28.34;44.34;99187.47;4409389;32;33951;-71
2023/07/19 00:43:09;;;;;;;10.57;3.62;;;;;;;28.37;44.38;99177.91;4403260;32;34065;-71
2023/07/19 00:45:44;;;;;;;5.97;2.80;;;;;;;28.35;44.38;99178.16;4402746;32;33726;-72
2023/07/19 00:48:11;;;;;;;;;;;;;;;28.27;44.48;99168.34;4413766;32;34558;-72
2023/07/19 00:50:39;;;;;;;6.75;2.83;;;;;;;28.31;44.42;99163.19;4413725;32;35375;-72
2023/07/19 00:53:06;;;;;;;6.95;3.25;;;;;;;28.23;44.59;99169.09;4403558;32;35066;-72
2023/07/19 00:55:34;;;;;;;6.50;3.40;;;;;;;28.20;44.77;99166.81;4414546;32;33362;-72
2023/07/19 00:58:02;;;;;;;7.18;3.05;;;;;;;28.19;44.93;99154.16;4409580;32;35007;-72
2023/07/19 01:00:30;;;;;;;15.68;3.30;;;;;;;28.17;45.02;99148.06;4434448;32;34349;-72
2023/07/19 01:02:58;;;;;;;11.65;3.53;;;;;;;28.21;45.01;99149.22;4422362;32;33692;-71
2023/07/19 01:05:27;;;;;;;6.28;3.08;;;;;;;27.84;45.90;99133.91;4421717;32;33074;-72
2023/07/19 01:07:55;;;;;;;8.70;3.10;;;;;;;28.00;45.53;99137.81;4435866;32;33680;-71
2023/07/19 01:10:23;;;;;;;9.13;3.00;;;;;;;28.09;44.68;99147.37;4433606;32;34030;-72
2023/07/19 01:13:04;;;;;;;6.12;3.12;;;;;;;28.11;44.47;99149.84;4436402;32;34981;-71
2023/07/19 01:15:32;;;;;;;5.32;2.47;;;;;;;28.03;44.39;99162.09;4431537;32;34389;-72
2023/07/19 01:18:00;;;;;;;8.25;2.60;;;;;;;28.08;44.13;99159.44;4429302;32;34659;-71
2023/07/19 01:20:28;;;;;;;7.68;3.35;;;;;;;28.08;44.14;99164.09;4435684;32;33832;-71
2023/07/19 01:22:56;;;;;;;12.90;3.80;;;;;;;28.08;44.53;99169.59;4426201;32;35116;-71
2023/07/19 01:25:24;;;;;;;7.68;3.22;;;;;;;28.13;44.63;99163.37;4420701;32;33379;-71
2023/07/19 01:27:52;;;;;;;7.47;2.37;;;;;;;28.17;44.30;99157.13;4423240;32;33702;-72
2023/07/19 01:30:19;;;;;;;5.32;2.50;;;;;;;28.23;44.20;99147.09;4434254;32;33933;-74
2023/07/19 01:32:48;;;;;;;5.78;2.67;;;;;;;28.27;44.01;99154.59;4433863;32;33903;-73
2023/07/19 01:35:16;;;;;;;6.40;3.03;;;;;;;28.30;43.90;99153.28;4435003;32;33410;-72
2023/07/19 01:37:44;;;;;;;7.10;2.65;;;;;;;28.29;43.94;99148.84;4429843;32;33904;-72
2023/07/19 01:40:12;;;;;;;5.18;2.67;;;;;;;28.26;43.92;99143.84;4423702;32;34078;-72
2023/07/19 01:42:40;;;;;;;5.25;2.53;;;;;;;28.24;44.05;99130.31;4420749;32;32875;-73
2023/07/19 01:45:08;;;;;;;6.22;2.55;;;;;;;28.14;44.08;99134.78;4427448;32;33737;-73
2023/07/19 01:47:36;;;;;;;5.72;2.45;;;;;;;28.24;43.92;99141.31;4433401;32;34701;-73
2023/07/19 01:50:04;;;;;;;5.45;2.83;;;;;;;28.33;43.79;99139.03;4431885;32;35055;-73
2023/07/19 01:52:33;;;;;;;3.95;2.33;;;;;;;27.95;44.42;99136.88;4435414;32;33924;-72
2023/07/19 01:55:01;;;;;;;7.37;3.05;;;;;;;28.13;44.47;99135.88;4434501;32;33278;-71
2023/07/19 01:57:31;;;;;;;11.40;2.62;;;;;;;28.26;44.01;99136.41;4429040;32;33834;-71
2023/07/19 01:59:59;;;;;;;6.28;2.75;;;;;;;28.23;44.03;99138.81;4419547;32;33798;-71
2023/07/19 02:02:27;;;;;;;8.57;3.35;;;;;;;28.25;44.06;99153.16;4427208;32;34850;-71
2023/07/19 02:04:56;;;;;;;8.07;3.62;;;;;;;28.04;44.74;99136.25;4431192;32;34657;-71
2023/07/19 02:07:24;;;;;;;5.78;2.67;;;;;;;27.90;45.17;99142.25;4436763;32;33423;-72
2023/07/19 02:09:51;;;;;;;6.53;2.85;;;;;;;27.84;45.31;99144.91;4429446;32;34079;-73
2023/07/19 02:12:19;;;;;;;8.52;2.67;;;;;;;27.80;45.31;99148.34;4433919;32;33733;-73
2023/07/19 02:14:47;;;;;;;8.25;3.15;;;;;;;27.71;45.35;99152.56;4436201;32;32481;-73
2023/07/19 02:17:15;;;;;;;7.20;3.20;;;;;;;27.65;45.43;99143.34;4433249;32;34653;-73
2023/07/19 02:19:42;;;;;;;10.07;2.58;;;;;;;27.61;45.47;99151.25;4432844;32;34154;-71
2023/07/19 02:22:10;;;;;;;5.18;3.05;;;;;;;27.59;45.52;99156.13;4429353;32;34171;-73
2023/07/19 02:24:38;;;;;;;5.40;2.58;;;;;;;27.58;45.37;99154.47;4430168;32;33524;-73
2023/07/19 02:27:06;;;;;;;6.32;2.92;;;;;;;27.54;45.56;99174.41;4422860;32;33976;-73
2023/07/19 02:29:33;;;;;;;4.57;2.40;;;;;;;27.53;45.62;99178.25;4430317;32;34006;-73
2023/07/19 02:32:04;;;;;;;7.30;3.17;;;;;;;27.52;45.90;99171.09;4431457;32;35397;-73
2023/07/19 02:34:31;;;;;;;7.25;2.67;;;;;;;27.39;46.03;99167.47;4434207;32;33034;-74
2023/07/19 02:36:59;;;;;;;4.80;2.30;;;;;;;27.29;46.50;99178.25;4431677;32;33684;-71
2023/07/19 02:39:27;;;;;;;6.75;2.78;;;;;;;27.10;46.92;99168.38;4424387;32;32660;-71
2023/07/19 02:41:56;;;;;;;7.40;2.83;;;;;;;27.21;46.59;99175.81;4430427;32;33837;-70
2023/07/19 02:44:23;;;;;;;7.47;2.58;;;;;;;27.43;46.13;99170.59;4436601;32;33505;-71
2023/07/19 02:46:51;;;;;;;7.75;2.90;;;;;;;27.37;46.37;99166.88;4422197;32;33791;-69
2023/07/19 02:49:19;;;;;;;7.15;3.03;;;;;;;27.50;46.05;99156.72;4421179;32;33889;-75
2023/07/19 02:51:47;;;;;;;5.22;2.17;;;;;;;27.20;46.96;99167.84;4434971;32;34382;-74
2023/07/19 02:54:14;;;;;;;10.95;2.58;;;;;;;27.23;46.74;99172.84;4433391;32;33076;-73
2023/07/19 02:56:42;;;;;;;8.98;3.37;;;;;;;27.35;46.40;99170.94;4434459;32;33557;-73
2023/07/19 02:59:10;;;;;;;5.10;2.62;;;;;;;27.31;46.67;99167.00;4434736;32;34044;-73
2023/07/19 03:01:37;;;;;;;5.18;2.87;;;;;;;27.28;46.88;99154.56;4430974;32;34171;-74
2023/07/19 03:04:06;;;;;;;5.75;3.00;;;;;;;26.91;47.87;99142.91;4435079;32;33149;-72
2023/07/19 03:06:34;;;;;;;5.12;2.30;;;;;;;27.16;47.30;99146.34;4433462;32;34778;-75
2023/07/19 03:09:03;;;;;;;4.57;2.90;;;;;;;27.33;46.91;99151.94;4425651;32;34615;-74
2023/07/19 03:11:30;;;;;;;7.28;3.05;;;;;;;27.36;46.84;99156.13;4431692;32;33710;-71
2023/07/19 03:13:58;;;;;;;5.12;2.35;;;;;;;27.33;46.96;99148.37;4431079;32;35005;-71
2023/07/19 03:16:26;;;;;;;7.00;3.37;;;;;;;27.41;46.81;99159.81;4429339;32;33818;-72
2023/07/19 03:18:53;;;;;;;5.97;3.22;;;;;;;27.37;46.89;99161.38;4422609;32;34990;-75
2023/07/19 03:21:21;;;;;;;7.20;3.12;;;;;;;27.30;47.04;99146.94;4429707;32;34131;-73
2023/07/19 03:23:50;;;;;;;7.53;2.78;;;;;;;27.37;46.89;99155.87;4432258;32;34330;-74
2023/07/19 03:26:18;;;;;;;9.45;3.37;;;;;;;27.38;47.02;99156.72;4430806;32;33474;-74
2023/07/19 03:28:46;;;;;;;8.68;3.20;;;;;;;27.36;46.95;99159.72;4432362;32;33961;-72
2023/07/19 03:31:14;;;;;;;5.85;2.53;;;;;;;27.35;46.86;99157.19;4432775;32;34059;-72
2023/07/19 03:33:42;;;;;;;9.07;3.08;;;;;;;27.35;47.03;99155.31;4421804;32;34726;-73
2023/07/19 03:36:09;;;;;;;12.25;3.33;;;;;;;27.10;47.25;99146.41;4413073;32;33995;-73
2023/07/19 03:38:37;;;;;;;5.87;2.50;;;;;;;27.07;47.52;99146.87;4431202;32;34050;-73
2023/07/19 03:41:08;;;;;;;15.07;2.70;;;;;;;27.27;46.74;99152.06;4431607;32;34822;-73
2023/07/19 03:43:36;;;;;;;7.45;2.80;;;;;;;27.33;46.85;99143.72;4414784;32;33845;-73
2023/07/19 03:46:05;;;;;;;7.12;2.90;;;;;;;27.22;46.58;99143.69;4419712;32;35016;-73
2023/07/19 03:48:35;;;;;;;7.20;2.92;;;;;;;27.08;46.92;99140.31;4414332;32;35296;-72
2023/07/19 03:51:04;;;;;;;6.47;2.60;;;;;;;27.24;46.66;99158.03;4430724;32;32673;-72
2023/07/19 03:53:32;;;;;;;4.62;1.95;;;;;;;27.03;46.92;99151.16;4423306;32;33295;-72
2023/07/19 03:56:00;;;;;;;4.22;1.80;;;;;;;27.02;46.79;99150.31;4427132;32;34629;-73
2023/07/19 03:58:28;;;;;;;8.70;2.85;;;;;;;27.04;46.60;99152.84;4430614;32;34142;-72
2023/07/19 04:00:57;;;;;;;4.75;2.05;;;;;;;26.97;46.82;99152.97;4433791;32;35240;-72
2023/07/19 04:03:26;;;;;;;5.43;2.17;;;;;;;26.92;47.00;99152.81;4431429;32;33389;-73
2023/07/19 04:05:57;;;;;;;7.35;2.08;;;;;;;26.88;47.21;99159.84;4434770;32;34374;-73
2023/07/19 04:08:25;;;;;;;7.20;2.62;;;;;;;26.90;47.32;99163.19;4430337;32;34054;-73
2023/07/19 04:10:53;;;;;;;4.37;2.17;;;;;;;26.89;47.49;99158.78;4433214;32;33334;-72
2023/07/19 04:13:21;;;;;;;7.45;2.60;;;;;;;26.91;47.54;99156.63;4435256;32;34522;-72
2023/07/19 04:15:49;;;;;;;5.43;2.10;;;;;;;27.04;47.38;99152.84;4436590;32;34006;-71
2023/07/19 04:18:16;;;;;;;5.65;2.20;;;;;;;27.11;47.38;99159.06;4418712;32;33905;-72
2023/07/19 04:20:44;;;;;;;8.93;2.87;;;;;;;26.93;47.95;99160.84;4436515;32;34863;-72
2023/07/19 04:23:11;;;;;;;7.07;2.87;;;;;;;27.22;47.32;99166.50;4435761;32;34644;-71
2023/07/19 04:25:39;;;;;;;6.30;1.98;;;;;;;27.24;47.05;99169.84;4429479;32;34080;-71
2023/07/19 04:28:07;;;;;;;3.92;2.33;;;;;;;27.32;47.04;99165.91;4434093;32;34858;-71
2023/07/19 04:30:35;;;;;;;6.75;2.90;;;;;;;27.26;47.44;99166.88;4436260;32;34080;-71
2023/07/19 04:33:04;;;;;;;7.62;3.67;;;;;;;27.52;47.19;99179.31;4423239;32;34426;-71
2023/07/19 04:35:32;;;;;;;14.15;2.33;;;;;;;27.64;46.75;99167.25;4435133;32;35062;-71
2023/07/19 04:37:59;;;;;;;5.68;1.62;;;;;;;27.70;46.34;99178.34;4433525;32;32795;-72
2023/07/19 04:40:27;;;;;;;4.93;2.17;;;;;;;27.67;46.51;99176.91;4435337;32;33988;-70
2023/07/19 04:42:55;;;;;;;5.00;2.37;;;;;;;27.77;46.27;99177.19;4436860;32;33539;-71
2023/07/19 04:45:22;;;;;;;6.57;2.42;;;;;;;27.76;46.31;99178.22;4432043;32;33678;-71
2023/07/19 04:47:50;;;;;;;6.20;2.33;;;;;;;27.80;46.29;99178.59;4428949;32;34925;-72
2023/07/19 04:50:18;;;;;;;5.55;1.85;;;;;;;27.86;46.25;99177.66;4425305;32;33897;-72
2023/07/19 04:52:46;;;;;;;4.30;2.25;;;;;;;27.78;46.67;99178.84;4428316;32;34621;-72
2023/07/19 04:55:13;;;;;;;5.28;2.35;;;;;;;27.98;45.93;99175.72;4433543;32;34055;-72
2023/07/19 04:57:41;;;;;;;5.80;2.00;;;;;;;28.05;45.70;99187.41;4432478;32;34760;-72
2023/07/19 05:00:14;;;;;;;5.25;2.15;;;;;;;28.16;45.49;99177.50;4421371;32;33927;-72
2023/07/19 05:02:45;;;;;;;8.40;3.15;;;;;;;28.25;45.37;99183.41;4433803;32;34357;-72
2023/07/19 05:05:14;;;;;;;8.95;2.35;;;;;;;28.28;45.31;99175.53;4426388;32;36070;-72
2023/07/19 05:07:41;;;;;;;6.05;1.92;;;;;;;28.25;45.81;99172.41;4432756;32;32579;-71
2023/07/19 05:10:09;;;;;;;8.45;2.28;;;;;;;28.30;45.86;99172.53;4427404;32;33390;-72
2023/07/19 05:12:37;;;;;;;10.00;3.22;;;;;;;28.34;46.17;99179.22;4433545;32;34392;-72
2023/07/19 05:15:05;;;;;;;9.38;3.35;;;;;;;28.68;45.41;99179.38;4434300;32;33688;-72
2023/07/19 05:17:33;;;;;;;7.45;3.50;;;;;;;28.84;45.23;99175.81;4434662;32;35056;-72
2023/07/19 05:20:00;;;;;;;6.18;2.92;;;;;;;28.66;45.07;99174.09;4435341;32;34978;-72
2023/07/19 05:22:30;;;;;;;9.20;2.03;;;;;;;28.24;46.67;99168.84;4434793;32;33421;-71
2023/07/19 05:25:00;;;;;;;6.10;2.58;;;;;;;28.70;45.68;99160.66;4419905;32;33513;-72
2023/07/19 05:27:27;;;;;;;9.93;3.35;;;;;;;28.56;45.88;99158.22;4430665;32;33634;-72
2023/07/19 05:29:55;;;;;;;7.10;3.22;;;;;;;28.94;45.14;99161.38;4436066;32;34323;-72
2023/07/19 05:32:23;;;;;;;9.60;2.78;;;;;;;28.59;46.05;99165.16;4434462;32;33505;-72
2023/07/19 05:34:50;;;;;;;10.32;2.62;;;;;;;28.55;45.61;99178.56;4433537;32;33731;-75
2023/07/19 05:37:18;;;;;;;4.78;1.87;;;;;;;28.84;45.06;99166.72;4433023;32;35131;-75
2023/07/19 05:39:47;;;;;;;11.30;4.05;;;;;;;29.09;44.99;99174.62;4432790;32;34089;-76
2023/07/19 05:42:15;;;;;;;7.47;2.50;;;;;;;28.73;45.38;99162.91;4431803;32;33573;-75
2023/07/19 05:44:42;;;;;;;7.50;2.97;;;;;;;29.03;44.65;99168.19;4436993;32;32725;-73
2023/07/19 05:47:10;;;;;;;11.43;3.47;;;;;;;29.19;44.10;99178.37;4435360;32;34774;-73
2023/07/19 05:49:38;;;;;;;6.28;2.60;;;;;;;28.96;45.06;99184.03;4435058;32;33844;-73
2023/07/19 05:52:05;;;;;;;8.10;3.33;;;;;;;28.99;44.91;99189.03;4433264;32;33219;-73
2023/07/19 05:54:33;;;;;;;9.55;4.03;;;;;;;29.25;44.63;99187.56;4436208;32;33461;-81
2023/07/19 05:57:01;;;;;;;14.77;4.10;;;;;;;29.32;44.58;99188.25;4420771;32;32731;-72
2023/07/19 05:59:28;;;;;;;9.27;4.78;;;;;;;29.18;44.95;99200.66;4433939;32;35069;-72
2023/07/19 06:01:56;;;;;;;9.52;4.65;;;;;;;29.04;45.20;99191.06;4432939;32;33648;-73
2023/07/19 06:04:24;;;;;;;6.57;2.72;;;;;;;29.11;45.13;99206.34;4423879;32;33895;-73
2023/07/19 06:06:52;;;;;;;6.82;3.58;;;;;;;28.71;45.59;99196.22;4431356;32;33922;-73
2023/07/19 06:09:19;;;;;;;12.05;3.03;;;;;;;28.74;45.84;99194.91;4431684;32;34825;-72
2023/07/19 06:11:47;;;;;;;5.43;2.87;;;;;;;29.10;44.92;99190.91;4429449;32;34411;-72
2023/07/19 06:14:15;;;;;;;5.72;2.90;;;;;;;29.17;44.81;99196.25;4414175;32;34003;-72
2023/07/19 06:16:43;;;;;;;4.93;2.85;;;;;;;29.04;45.08;99200.16;4431947;32;35398;-73
2023/07/19 06:19:11;;;;;;;5.40;3.00;;;;;;;29.46;44.25;99208.84;4423267;32;34275;-73
2023/07/19 06:21:38;;;;;;;7.55;2.45;;;;;;;29.33;44.53;99189.06;4421247;32;33605;-73
2023/07/19 06:24:06;;;;;;;9.27;3.70;;;;;;;29.31;44.98;99192.09;4420618;32;33565;-72
2023/07/19 06:26:34;;;;;;;10.00;2.90;;;;;;;29.61;44.33;99196.44;4429870;32;33681;-74
2023/07/19 06:29:02;;;;;;;9.68;3.53;;;;;;;29.64;44.19;99195.94;4427439;32;34087;-73
2023/07/19 06:31:29;;;;;;;7.45;3.03;;;;;;;29.77;44.14;99198.34;4427586;32;34191;-74
2023/07/19 06:33:57;;;;;;;7.28;2.62;;;;;;;29.67;44.63;99192.69;4431373;32;34568;-74
2023/07/19 06:36:26;;;;;;;5.62;2.97;;;;;;;29.90;44.50;99195.22;4431622;32;34211;-74
2023/07/19 06:38:54;;;;;;;12.57;3.53;;;;;;;29.82;43.94;99187.38;4432886;32;33870;-73
2023/07/19 06:41:22;;;;;;;7.72;3.70;;;;;;;29.57;44.54;99178.72;4433076;32;33222;-73
2023/07/19 06:43:50;;;;;;;6.12;3.28;;;;;;;29.76;43.99;99174.62;4435987;32;33768;-73
2023/07/19 06:46:17;;;;;;;6.60;3.10;;;;;;;29.80;44.16;99172.19;4432116;32;34823;-78
2023/07/19 06:48:45;;;;;;;6.28;2.90;;;;;;;29.59;45.08;99168.25;4428143;32;33939;-76
2023/07/19 06:51:13;;;;;;;7.12;2.67;;;;;;;29.89;45.17;99170.66;4433426;32;33781;-77
2023/07/19 06:53:40;;;;;;;8.13;3.90;;;;;;;29.65;45.37;99181.88;4429663;32;33147;-76
2023/07/19 06:56:08;;;;;;;11.18;3.30;;;;;;;29.52;45.41;99182.22;4433819;32;34212;-76
2023/07/19 06:58:35;;;;;;;9.30;3.12;;;;;;;29.75;45.07;99178.44;4429937;32;35183;-78
2023/07/19 07:01:03;;;;;;;7.75;3.40;;;;;;;29.76;45.08;99174.62;4427972;32;33262;-78
2023/07/19 07:03:31;;;;;;;8.98;3.83;;;;;;;29.87;44.56;99168.13;4414136;32;34194;-77
2023/07/19 07:06:00;;;;;;;8.95;2.92;;;;;;;29.85;44.57;99163.97;4427231;32;33583;-79
2023/07/19 07:08:31;;;;;;;10.27;2.67;;;;;;;30.06;44.36;99159.56;4430145;32;33823;-79
2023/07/19 07:11:04;;;;;;;8.70;3.40;;;;;;;29.89;44.50;99160.47;4433444;32;34177;-79
2023/07/19 07:13:32;;;;;;;7.82;3.83;;;;;;;29.94;44.27;99163.25;4431135;32;33567;-77
2023/07/19 07:15:59;;;;;;;5.18;2.85;;;;;;;29.94;44.58;99163.25;4418932;32;34641;-79
2023/07/19 07:18:27;;;;;;;14.13;4.20;;;;;;;29.89;44.27;99156.88;4422741;32;33788;-72
2023/07/19 07:20:54;;;;;;;11.43;3.28;;;;;;;30.02;44.18;99159.25;4423785;32;34750;-77
2023/07/19 07:23:22;;;;;;;7.93;3.37;;;;;;;30.07;42.71;99166.75;4428144;32;33460;-74
2023/07/19 07:25:53;;;;;;;7.60;3.20;;;;;;;29.95;42.90;99169.63;4431168;32;33779;-76
2023/07/19 07:28:21;;;;;;;9.70;3.25;;;;;;;29.67;44.36;99176.97;4430186;32;33897;-77
2023/07/19 07:30:49;;;;;;;14.52;3.03;;;;;;;29.92;43.62;99178.41;4428236;32;34440;-76
2023/07/19 07:33:16;;;;;;;6.57;2.58;;;;;;;29.99;43.23;99178.25;4424953;32;33646;-77
2023/07/19 07:35:44;;;;;;;5.35;2.87;;;;;;;29.96;43.88;99176.00;4433983;32;33714;-77
2023/07/19 07:38:12;;;;;;;5.65;2.85;;;;;;;30.00;42.52;99180.72;4413461;32;33464;-76
2023/07/19 07:40:40;;;;;;;8.55;3.30;;;;;;;29.92;43.05;99170.13;4421115;32;31927;-77
2023/07/19 07:43:07;;;;;;;6.78;3.17;;;;;;;29.91;43.25;99176.75;4425080;32;33458;-76
2023/07/19 07:45:36;;;;;;;8.38;3.28;;;;;;;29.86;43.80;99180.28;4412354;32;34498;-75
2023/07/19 07:48:03;;;;;;;6.55;3.17;;;;;;;29.91;44.07;99182.25;4419821;32;34137;-77
2023/07/19 07:50:31;;;;;;;7.15;3.12;;;;;;;29.66;44.36;99180.81;4419134;32;33223;-77
2023/07/19 07:52:59;;;;;;;8.77;3.40;;;;;;;30.02;43.62;99180.50;4433348;32;33760;-77
2023/07/19 07:55:40;;;;;;;10.85;4.00;;;;;;;29.99;44.49;99181.00;4428957;32;34929;-76
2023/07/19 07:58:08;;;;;;;7.65;3.45;;;;;;;29.88;43.80;99193.78;4427346;32;33797;-75
2023/07/19 08:00:36;;;;;;;14.95;3.55;;;;;;;30.14;43.43;99192.22;4422867;32;34332;-75
2023/07/19 08:03:04;;;;;;;7.95;2.97;;;;;;;29.86;44.98;99191.31;4433007;32;34572;-76
2023/07/19 08:05:32;;;;;;;8.13;3.47;;;;;;;30.11;44.66;99176.16;4416709;32;34041;-75
2023/07/19 08:07:59;;;;;;;8.77;4.25;;;;;;;29.99;44.72;99172.72;4429055;32;33847;-77
2023/07/19 08:10:27;;;;;;;7.32;2.97;;;;;;;29.76;44.27;99173.75;4423143;32;34365;-74
2023/07/19 08:12:55;;;;;;;7.62;3.25;;;;;;;30.03;43.69;99165.59;4420294;32;34742;-76
2023/07/19 08:15:23;;;;;;;11.43;4.45;;;;;;;30.14;43.23;99162.72;4418774;32;34716;-73
2023/07/19 08:17:52;;;;;;;10.85;3.42;;;;;;;30.17;43.33;99162.19;4432993;32;34023;-76
2023/07/19 08:20:20;;;;;;;6.85;3.37;;;;;;;30.25;43.56;99163.69;4435129;32;34736;-75
2023/07/19 08:22:47;;;;;;;5.15;2.87;;;;;;;30.22;43.71;99157.88;4432116;32;33311;-74
2023/07/19 08:25:17;;;;;;;10.75;3.70;;;;;;;30.19;43.70;99161.97;4435654;32;33828;-75
2023/07/19 08:27:54;;;;;;;11.48;3.20;;;;;;;30.04;43.92;99156.22;4431449;32;33755;-73
2023/07/19 08:30:23;;;;;;;6.85;2.83;;;;;;;30.11;43.41;99163.22;4435891;32;34722;-74
2023/07/19 08:32:51;;;;;;;6.90;3.53;;;;;;;30.00;44.08;99163.34;4417559;32;33979;-72
2023/07/19 08:35:19;;;;;;;6.72;2.78;;;;;;;30.21;43.17;99161.69;4412956;32;33603;-77
2023/07/19 08:37:47;;;;;;;15.82;3.67;;;;;;;29.90;44.20;99164.03;4430269;32;33754;-74
2023/07/19 08:40:16;;;;;;;11.68;3.92;;;;;;;29.71;45.17;99160.75;4431504;32;33110;-76
2023/07/19 08:42:43;;;;;;;13.35;3.72;;;;;;;29.98;43.68;99158.06;4434560;32;34614;-78
2023/07/19 08:45:12;;;;;;;16.52;3.85;;;;;;;29.87;43.92;99170.91;4428402;32;33638;-74
2023/07/19 08:47:40;;;;;;;9.73;3.72;;;;;;;29.91;43.10;99171.22;4432971;32;35248;-74
2023/07/19 08:50:10;;;;;;;11.45;3.55;;;;;;;30.04;44.11;99165.31;4436125;32;32970;-74
2023/07/19 08:52:38;;;;;;;8.02;3.87;;;;;;;30.03;43.65;99174.69;4437168;32;35233;-76
2023/07/19 08:55:06;;;;;;;8.00;3.67;;;;;;;30.36;43.19;99172.94;4433338;32;34777;-74
2023/07/19 08:57:43;;;;;;;6.65;3.33;;;;;;;30.28;43.49;99176.16;4424129;32;32237;-74
2023/07/19 09:00:15;;;;;;;8.07;4.25;;;;;;;30.58;42.63;99186.72;4387166;32;32133;-75
2023/07/19 09:02:43;;;;;;;8.38;3.92;;;;;;;30.38;43.98;99185.37;4383378;32;32072;-75
2023/07/19 09:05:12;;;;;;;6.87;3.83;;;;;;;30.54;43.22;99178.13;4381715;32;33862;-74
2023/07/19 09:07:41;;;;;;;11.55;4.87;;;;;;;31.13;42.17;99182.88;4356254;32;33973;-75
2023/07/19 09:10:09;;;;;;;8.95;4.50;;;;;;;30.99;40.25;99181.66;4355389;32;33185;-78
2023/07/19 09:12:38;;;;;;;8.18;3.37;;;;;;;30.67;40.60;99187.94;4344892;32;33876;-77
2023/07/19 09:15:11;;;;;;;6.35;3.58;;;;;;;30.72;40.37;99176.09;4356124;32;33964;-75
2023/07/19 09:17:44;;;;;;;12.02;4.00;;;;;;;31.08;39.99;99180.06;4354347;32;35090;-76
2023/07/19 09:20:12;;;;;;;8.00;3.72;;;;;;;30.73;40.89;99177.78;4356334;32;33201;-75
2023/07/19 09:22:41;;;;;;;10.82;3.87;;;;;;;30.94;40.40;99176.06;4355180;32;33498;-77
2023/07/19 09:25:10;;;;;;;8.80;3.45;;;;;;;30.92;40.77;99169.97;4353919;32;33691;-77
2023/07/19 09:27:42;;;;;;;6.90;3.67;;;;;;;30.43;41.70;99170.78;4356383;32;33991;-76
2023/07/19 09:30:11;;;;;;;8.75;4.05;;;;;;;30.66;41.77;99175.22;4356482;32;33445;-76
2023/07/19 09:32:39;;;;;;;7.97;4.28;;;;;;;31.18;40.66;99176.56;4353034;32;33843;-76
2023/07/19 09:35:08;;;;;;;8.90;4.30;;;;;;;31.04;40.72;99173.38;4356574;32;33715;-78
2023/07/19 09:37:36;;;;;;;18.27;5.05;;;;;;;31.38;39.59;99160.16;4372523;32;32690;-72
2023/07/19 09:40:04;;;;;;;11.88;4.25;;;;;;;31.31;40.60;99168.66;4430307;32;34231;-78
2023/07/19 09:42:35;;;;;;;8.32;4.53;;;;;;;31.25;41.06;99160.59;4428183;32;33475;-73
2023/07/19 09:45:06;;;;;;;13.73;4.30;;;;;;;30.86;40.78;99161.63;4426163;32;33528;-73
2023/07/19 09:47:35;;;;;;;8.27;4.25;;;;;;;31.17;40.88;99161.88;4416652;32;33961;-72
2023/07/19 09:50:06;;;;;;;9.77;4.72;;;;;;;31.48;39.81;99165.75;4424642;32;32475;-73
2023/07/19 09:52:38;;;;;;;9.93;3.87;;;;;;;31.53;39.71;99167.75;4435017;32;34754;-72
2023/07/19 09:55:06;;;;;;;8.93;3.90;;;;;;;30.84;40.63;99174.03;4418555;32;34702;-73
2023/07/19 09:57:37;;;;;;;12.48;4.82;;;;;;;31.27;39.13;99170.28;4420225;32;34060;-73
2023/07/19 10:00:05;;;;;;;12.10;3.95;;;;;;;30.61;40.27;99167.69;4426174;32;34808;-73
2023/07/19 10:02:34;;;;;;;6.95;4.20;;;;;;;31.04;39.64;99165.09;4420297;32;34624;-73
2023/07/19 10:05:08;;;;;;;13.55;4.40;;;;;;;31.47;38.37;99160.50;4422527;32;32654;-74
2023/07/19 10:07:39;;;;;;;10.10;3.80;;;;;;;31.30;40.25;99160.59;4425297;32;34373;-74
2023/07/19 10:10:19;;;;;;;9.52;4.62;;;;;;;31.26;40.65;99149.25;4430501;32;33477;-73
2023/07/19 10:12:48;;;;;;;9.68;4.65;;;;;;;31.62;38.71;99146.78;4436298;32;33768;-74
2023/07/19 10:15:17;;;;;;;8.20;4.28;;;;;;;31.37;37.11;99138.31;4419098;32;34852;-73
2023/07/19 10:17:49;;;;;;;11.27;4.57;;;;;;;31.44;37.32;99139.75;4417619;32;33919;-72
2023/07/19 10:20:22;;;;;;;13.45;4.25;;;;;;;31.42;37.57;99138.34;4419140;32;33591;-72
2023/07/19 10:22:56;;;;;;;9.98;3.90;;;;;;;31.68;38.14;99129.09;4419852;32;33597;-71
2023/07/19 10:25:47;;;;;;;10.73;4.12;;;;;;;31.81;38.08;99129.72;4425994;32;34215;-72
2023/07/19 10:28:29;;;;;;;11.82;4.78;;;;;;;31.88;37.88;99125.66;4429130;32;33599;-71
2023/07/19 10:30:59;;;;;;;7.60;3.50;;;;;;;32.16;36.33;99118.00;4432956;32;33443;-79
2023/07/19 10:33:44;;;;;;;13.02;4.37;;;;;;;32.07;37.62;99126.03;4430188;32;34043;-75
2023/07/19 10:36:13;;;;;;;7.15;3.62;;;;;;;31.70;38.22;99120.56;4430899;32;33952;-75
2023/07/19 10:38:41;;;;;;;8.88;4.32;;;;;;;31.71;37.61;99111.97;4423006;32;34837;-75
2023/07/19 10:41:11;;;;;;;8.70;3.97;;;;;;;31.54;38.01;99103.84;4429863;32;33425;-74
2023/07/19 10:43:38;;;;;;;8.15;4.87;;;;;;;31.65;37.26;99096.44;4428722;32;32511;-75
2023/07/19 10:46:10;;;;;;;11.45;4.72;;;;;;;31.98;36.39;99089.72;4435867;32;34637;-73
2023/07/19 10:48:38;;;;;;;11.02;4.65;;;;;;;31.69;35.95;99077.41;4407035;32;33801;-74
2023/07/19 10:51:09;;;;;;;8.80;4.22;;;;;;;32.00;36.25;99075.59;4411070;32;34228;-75
2023/07/19 10:53:41;;;;;;;8.48;4.25;;;;;;;32.17;37.04;99081.78;4413473;32;33493;-73
2023/07/19 10:56:09;;;;;;;6.78;3.83;;;;;;;32.40;36.06;99076.84;4415944;32;34920;-74
2023/07/19 10:58:37;;;;;;;7.72;4.68;;;;;;;32.64;36.39;99089.06;4413465;32;34862;-73
2023/07/19 11:01:04;;;;;;;8.80;3.90;;;;;;;32.56;35.28;99095.19;4411003;32;33254;-76
2023/07/19 11:03:32;;;;;;;5.93;2.75;;;;;;;32.68;34.11;99094.87;4417510;32;34628;-75
2023/07/19 11:06:00;;;;;;;9.52;4.05;;;;;;;32.48;33.99;99099.31;4414868;32;33621;-78
2023/07/19 11:08:29;;;;;;;7.90;3.70;;;;;;;32.89;33.57;99107.66;4416924;32;35058;-78
2023/07/19 11:10:58;;;;;;;9.05;4.40;;;;;;;32.81;32.93;99107.38;4416254;32;33632;-73
2023/07/19 11:13:26;;;;;;;10.07;3.45;;;;;;;32.66;33.92;99109.03;4414029;32;33696;-72
2023/07/19 11:15:55;;;;;;;7.80;3.67;;;;;;;33.04;32.08;99093.03;4415988;32;32635;-72
2023/07/19 11:18:23;;;;;;;9.80;3.85;;;;;;;33.35;32.36;99092.97;4407778;32;33780;-72
2023/07/19 11:20:51;;;;;;;9.88;3.92;;;;;;;32.95;33.83;99089.09;4432424;32;33079;-71
2023/07/19 11:23:18;;;;;;;6.43;3.22;;;;;;;33.30;32.78;99093.00;4429471;32;34768;-72
2023/07/19 11:25:47;;;;;;;8.68;4.03;;;;;;;33.22;31.74;99085.22;4425043;32;34205;-72
2023/07/19 11:28:36;;;;;;;5.90;2.95;;;;;;;33.65;31.11;99092.09;4428195;32;33299;-72
2023/07/19 11:31:05;;;;;;;7.12;3.25;;;;;;;33.72;30.40;99087.09;4436363;32;34861;-73
2023/07/19 11:33:34;;;;;;;6.43;2.97;;;;;;;33.51;30.99;99089.06;4433122;32;33885;-72
2023/07/19 11:36:10;;;;;;;8.00;3.60;;;;;;;33.90;30.92;99082.84;4421036;32;33756;-71
2023/07/19 11:38:38;;;;;;;5.95;3.25;;;;;;;34.05;31.53;99082.81;4421717;32;34301;-71